Lady Duvera — PB2875 — position and weather

sailwx.info

Track history (hours):
 
Tides and Currents Weather Stations Pressure Air Temp Water Temp Dewpoint Dewpoint Depression Visibility Wind Speed Wind Dir Waves Ship Positions

Lady Duvera

Last reported at 2016-Aug-24 13:12 UTC. Time now 2016-Aug-24 16:13 UTC.
Position N 43°34' E 007°05'.

Length 44 m.

MMSI: 244650177.

Date/timePositionNaut miles runAvg speedWind from/ knotsBaromVisibWave heightAir tempDewpointWater temp
2016-Aug-24 13:12N 43°34' E 007°05'0 0.0
2016-Aug-24 06:24N 43°34' E 007°05'0 0.0
2016-Aug-24 04:06N 43°34' E 007°05'0 0.0
2016-Aug-24 03:30N 43°34' E 007°05'0 0.0
2016-Aug-24 01:06N 43°34' E 007°05'0 0.0
2016-Aug-24 00:30N 43°34' E 007°05'0 0.0
2016-Aug-23 20:12N 43°34' E 007°05'0 0.0
2016-Aug-23 19:30N 43°34' E 007°05'0 0.0
2016-Aug-23 17:18N 43°34' E 007°05'0 0.0
2016-Aug-23 16:30N 43°34' E 007°05'0 0.0
2016-Aug-23 15:06N 43°34' E 007°05'0 0.0
2016-Aug-23 14:30N 43°34' E 007°05'0 0.0
2016-Aug-23 13:18N 43°34' E 007°05'0 0.0
2016-Aug-23 12:30N 43°34' E 007°05'0 0.0
2016-Aug-23 11:24N 43°34' E 007°05'0 0.0
2016-Aug-23 10:18N 43°34' E 007°05'0 0.0
2016-Aug-23 09:30N 43°34' E 007°05'0 0.0
2016-Aug-23 08:30N 43°34' E 007°05'0 0.0
2016-Aug-23 07:24N 43°34' E 007°05'0 0.0
2016-Aug-23 06:30N 43°34' E 007°05'0 0.0
2016-Aug-23 04:24N 43°34' E 007°05'0 0.0
2016-Aug-23 03:06N 43°34' E 007°05'0 0.0
2016-Aug-23 02:30N 43°34' E 007°05'0 0.0
2016-Aug-23 01:30N 43°34' E 007°05'0 0.0
2016-Aug-23 00:30N 43°34' E 007°05'0 0.0
2016-Aug-22 23:30N 43°34' E 007°05'0 0.0
2016-Aug-22 22:30N 43°34' E 007°05'0 0.0
2016-Aug-22 21:30N 43°34' E 007°05'0 0.0
2016-Aug-22 20:30N 43°34' E 007°05'0 0.0
2016-Aug-22 19:30N 43°34' E 007°05'0 0.0
2016-Aug-22 17:18N 43°34' E 007°05'0 0.0
2016-Aug-22 16:30N 43°34' E 007°05'0 0.0
2016-Aug-22 15:30N 43°34' E 007°05'0 0.0
2016-Aug-22 14:30N 43°34' E 007°05'4 3.7
2016-Aug-22 13:33N 43°33' E 007°10'1 1.2
2016-Aug-22 12:21N 43°35' E 007°08'0 0.0
2016-Aug-22 11:33N 43°35' E 007°08'0 0.0
2016-Aug-22 10:33N 43°35' E 007°08'2 2.3
2016-Aug-22 09:33N 43°32' E 007°08'5 1.4
2016-Aug-22 06:08N 43°31' E 007°02'0 0.0
2016-Aug-22 05:29N 43°31' E 007°02'0 0.0
2016-Aug-22 04:17N 43°31' E 007°02'0 0.0
2016-Aug-22 03:29N 43°31' E 007°02'0 0.0
2016-Aug-22 02:29N 43°31' E 007°02'0 0.0
2016-Aug-22 01:23N 43°31' E 007°02'0 0.0
2016-Aug-22 00:17N 43°31' E 007°02'0 0.0
2016-Aug-21 18:23N 43°31' E 007°02'2 0.3
2016-Aug-21 11:33N 43°32' E 007°01'3 1.2
2016-Aug-21 08:33N 43°31' E 006°57'  
2016-Aug-17 09:07N 43°29' E 007°03'5 8.7
2016-Aug-17 08:33N 43°34' E 007°05'0 0.1
2016-Aug-17 07:04N 43°34' E 007°05'0 0.0
2016-Aug-16 21:04N 43°34' E 007°05'0 0.0
2016-Aug-16 20:28N 43°34' E 007°05'0 0.0
2016-Aug-16 18:16N 43°34' E 007°05'0 0.0
2016-Aug-16 17:22N 43°34' E 007°05'0 0.0
2016-Aug-16 16:15N 43°34' E 007°05'0 0.0
2016-Aug-16 15:34N 43°34' E 007°05'0 0.0
2016-Aug-16 14:28N 43°34' E 007°05'0 0.0
2016-Aug-16 13:16N 43°34' E 007°05'0 0.0
2016-Aug-16 12:16N 43°34' E 007°05'0 0.0
2016-Aug-16 11:33N 43°34' E 007°05'0 0.0
2016-Aug-16 10:28N 43°34' E 007°05'0 0.0
2016-Aug-16 09:22N 43°34' E 007°05'0 0.0
2016-Aug-16 08:22N 43°34' E 007°05'0 0.0
2016-Aug-16 07:33N 43°34' E 007°05'0 0.0
2016-Aug-16 06:10N 43°34' E 007°05'0 0.0
2016-Aug-16 04:22N 43°34' E 007°05'0 0.0
2016-Aug-16 03:28N 43°34' E 007°05'0 0.0
2016-Aug-16 01:27N 43°34' E 007°05'0 0.0
2016-Aug-16 00:33N 43°34' E 007°05'0 0.0
2016-Aug-15 23:33N 43°34' E 007°05'0 0.0
2016-Aug-15 22:27N 43°34' E 007°05'0 0.0
2016-Aug-15 21:15N 43°34' E 007°05'0 0.0
2016-Aug-15 19:33N 43°34' E 007°05'0 0.0
2016-Aug-15 18:33N 43°34' E 007°05'0 0.0
2016-Aug-15 17:33N 43°34' E 007°05'0 0.0
2016-Aug-15 16:33N 43°34' E 007°05'0 0.0
2016-Aug-15 15:33N 43°34' E 007°05'0 0.0
2016-Aug-15 14:33N 43°34' E 007°05'0 0.0
2016-Aug-15 13:27N 43°34' E 007°05'0 0.0
2016-Aug-15 12:34N 43°34' E 007°05'0 0.0
2016-Aug-15 11:03N 43°34' E 007°05'0 0.0
2016-Aug-15 10:15N 43°34' E 007°05'0 0.0
2016-Aug-15 09:03N 43°34' E 007°05'0 0.0
2016-Aug-15 08:33N 43°34' E 007°05'0 0.0
2016-Aug-15 07:21N 43°34' E 007°05'0 0.0
2016-Aug-15 06:27N 43°34' E 007°05'0 0.0
2016-Aug-15 04:33N 43°34' E 007°05'0 0.0
2016-Aug-15 03:27N 43°34' E 007°05'0 0.0
2016-Aug-15 02:33N 43°34' E 007°05'0 0.0
2016-Aug-15 01:33N 43°34' E 007°05'0 0.0
2016-Aug-15 00:33N 43°34' E 007°05'0 0.0
2016-Aug-14 23:27N 43°34' E 007°05'0 0.0
2016-Aug-14 22:21N 43°34' E 007°05'0 0.0
2016-Aug-14 21:27N 43°34' E 007°05'0 0.0
2016-Aug-14 20:33N 43°34' E 007°05'0 0.0
2016-Aug-14 19:33N 43°34' E 007°05'0 0.0
2016-Aug-14 18:33N 43°34' E 007°05'0 0.0
2016-Aug-14 17:27N 43°34' E 007°05'0 0.0
2016-Aug-14 16:33N 43°34' E 007°05'0 0.0
2016-Aug-14 15:33N 43°34' E 007°05'0 0.0
2016-Aug-14 14:27N 43°34' E 007°05'0 0.0
2016-Aug-14 13:27N 43°34' E 007°05'  
Track history (hours):
 
Tides and Currents Weather Stations Pressure Air Temp Water Temp Dewpoint Dewpoint Depression Visibility Wind Speed Wind Dir Waves Ship Positions

Lady Duvera

Last reported at 2016-Aug-24 13:12 UTC. Time now 2016-Aug-24 16:13 UTC.
Position N 43°34' E 007°05'.

Length 44 m.

MMSI: 244650177.

Date/timePositionNaut miles runAvg speedWind from/ knotsBaromVisibWave heightAir tempDewpointWater temp
2016-Aug-24 13:12N 43°34' E 007°05'0 0.0
2016-Aug-24 06:24N 43°34' E 007°05'0 0.0
2016-Aug-24 04:06N 43°34' E 007°05'0 0.0
2016-Aug-24 03:30N 43°34' E 007°05'0 0.0
2016-Aug-24 01:06N 43°34' E 007°05'0 0.0
2016-Aug-24 00:30N 43°34' E 007°05'0 0.0
2016-Aug-23 20:12N 43°34' E 007°05'0 0.0
2016-Aug-23 19:30N 43°34' E 007°05'0 0.0
2016-Aug-23 17:18N 43°34' E 007°05'0 0.0
2016-Aug-23 16:30N 43°34' E 007°05'0 0.0
2016-Aug-23 15:06N 43°34' E 007°05'0 0.0
2016-Aug-23 14:30N 43°34' E 007°05'0 0.0
2016-Aug-23 13:18N 43°34' E 007°05'0 0.0
2016-Aug-23 12:30N 43°34' E 007°05'0 0.0
2016-Aug-23 11:24N 43°34' E 007°05'0 0.0
2016-Aug-23 10:18N 43°34' E 007°05'0 0.0
2016-Aug-23 09:30N 43°34' E 007°05'0 0.0
2016-Aug-23 08:30N 43°34' E 007°05'0 0.0
2016-Aug-23 07:24N 43°34' E 007°05'0 0.0
2016-Aug-23 06:30N 43°34' E 007°05'0 0.0
2016-Aug-23 04:24N 43°34' E 007°05'0 0.0
2016-Aug-23 03:06N 43°34' E 007°05'0 0.0
2016-Aug-23 02:30N 43°34' E 007°05'0 0.0
2016-Aug-23 01:30N 43°34' E 007°05'0 0.0
2016-Aug-23 00:30N 43°34' E 007°05'0 0.0
2016-Aug-22 23:30N 43°34' E 007°05'0 0.0
2016-Aug-22 22:30N 43°34' E 007°05'0 0.0
2016-Aug-22 21:30N 43°34' E 007°05'0 0.0
2016-Aug-22 20:30N 43°34' E 007°05'0 0.0
2016-Aug-22 19:30N 43°34' E 007°05'0 0.0
2016-Aug-22 17:18N 43°34' E 007°05'0 0.0
2016-Aug-22 16:30N 43°34' E 007°05'0 0.0
2016-Aug-22 15:30N 43°34' E 007°05'0 0.0
2016-Aug-22 14:30N 43°34' E 007°05'4 3.7
2016-Aug-22 13:33N 43°33' E 007°10'1 1.2
2016-Aug-22 12:21N 43°35' E 007°08'0 0.0
2016-Aug-22 11:33N 43°35' E 007°08'0 0.0
2016-Aug-22 10:33N 43°35' E 007°08'2 2.3
2016-Aug-22 09:33N 43°32' E 007°08'5 1.4
2016-Aug-22 06:08N 43°31' E 007°02'0 0.0
2016-Aug-22 05:29N 43°31' E 007°02'0 0.0
2016-Aug-22 04:17N 43°31' E 007°02'0 0.0
2016-Aug-22 03:29N 43°31' E 007°02'0 0.0
2016-Aug-22 02:29N 43°31' E 007°02'0 0.0
2016-Aug-22 01:23N 43°31' E 007°02'0 0.0
2016-Aug-22 00:17N 43°31' E 007°02'0 0.0
2016-Aug-21 18:23N 43°31' E 007°02'2 0.3
2016-Aug-21 11:33N 43°32' E 007°01'3 1.2
2016-Aug-21 08:33N 43°31' E 006°57'  
2016-Aug-17 09:07N 43°29' E 007°03'5 8.7
2016-Aug-17 08:33N 43°34' E 007°05'0 0.1
2016-Aug-17 07:04N 43°34' E 007°05'0 0.0
2016-Aug-16 21:04N 43°34' E 007°05'0 0.0
2016-Aug-16 20:28N 43°34' E 007°05'0 0.0
2016-Aug-16 18:16N 43°34' E 007°05'0 0.0
2016-Aug-16 17:22N 43°34' E 007°05'0 0.0
2016-Aug-16 16:15N 43°34' E 007°05'0 0.0
2016-Aug-16 15:34N 43°34' E 007°05'0 0.0
2016-Aug-16 14:28N 43°34' E 007°05'0 0.0
2016-Aug-16 13:16N 43°34' E 007°05'0 0.0
2016-Aug-16 12:16N 43°34' E 007°05'0 0.0
2016-Aug-16 11:33N 43°34' E 007°05'0 0.0
2016-Aug-16 10:28N 43°34' E 007°05'0 0.0
2016-Aug-16 09:22N 43°34' E 007°05'0 0.0
2016-Aug-16 08:22N 43°34' E 007°05'0 0.0
2016-Aug-16 07:33N 43°34' E 007°05'0 0.0
2016-Aug-16 06:10N 43°34' E 007°05'0 0.0
2016-Aug-16 04:22N 43°34' E 007°05'0 0.0
2016-Aug-16 03:28N 43°34' E 007°05'0 0.0
2016-Aug-16 01:27N 43°34' E 007°05'0 0.0
2016-Aug-16 00:33N 43°34' E 007°05'0 0.0
2016-Aug-15 23:33N 43°34' E 007°05'0 0.0
2016-Aug-15 22:27N 43°34' E 007°05'0 0.0
2016-Aug-15 21:15N 43°34' E 007°05'0 0.0
2016-Aug-15 19:33N 43°34' E 007°05'0 0.0
2016-Aug-15 18:33N 43°34' E 007°05'0 0.0
2016-Aug-15 17:33N 43°34' E 007°05'0 0.0
2016-Aug-15 16:33N 43°34' E 007°05'0 0.0
2016-Aug-15 15:33N 43°34' E 007°05'0 0.0
2016-Aug-15 14:33N 43°34' E 007°05'0 0.0
2016-Aug-15 13:27N 43°34' E 007°05'0 0.0
2016-Aug-15 12:34N 43°34' E 007°05'0 0.0
2016-Aug-15 11:03N 43°34' E 007°05'0 0.0
2016-Aug-15 10:15N 43°34' E 007°05'0 0.0
2016-Aug-15 09:03N 43°34' E 007°05'0 0.0
2016-Aug-15 08:33N 43°34' E 007°05'0 0.0
2016-Aug-15 07:21N 43°34' E 007°05'0 0.0
2016-Aug-15 06:27N 43°34' E 007°05'0 0.0
2016-Aug-15 04:33N 43°34' E 007°05'0 0.0
2016-Aug-15 03:27N 43°34' E 007°05'0 0.0
2016-Aug-15 02:33N 43°34' E 007°05'0 0.0
2016-Aug-15 01:33N 43°34' E 007°05'0 0.0
2016-Aug-15 00:33N 43°34' E 007°05'0 0.0
2016-Aug-14 23:27N 43°34' E 007°05'0 0.0
2016-Aug-14 22:21N 43°34' E 007°05'0 0.0
2016-Aug-14 21:27N 43°34' E 007°05'0 0.0
2016-Aug-14 20:33N 43°34' E 007°05'0 0.0
2016-Aug-14 19:33N 43°34' E 007°05'0 0.0
2016-Aug-14 18:33N 43°34' E 007°05'0 0.0
2016-Aug-14 17:27N 43°34' E 007°05'0 0.0
2016-Aug-14 16:33N 43°34' E 007°05'0 0.0
2016-Aug-14 15:33N 43°34' E 007°05'0 0.0
2016-Aug-14 14:27N 43°34' E 007°05'0 0.0
2016-Aug-14 13:27N 43°34' E 007°05'  

Dump ship's entire track history